createdAt,value
2017-06-20T09:00:10.093Z,30
2017-06-20T09:00:28.946Z,30
2017-06-20T09:05:16.437Z,30.2
2017-06-20T09:06:19.108Z,30
2017-06-20T09:07:32.420Z,30.9
2017-06-20T09:08:35.070Z,34.7
2017-06-20T09:09:37.600Z,34.7
2017-06-20T09:10:40.216Z,35
2017-06-20T09:11:42.712Z,36.6
2017-06-20T09:12:45.252Z,37.6
2017-06-20T09:13:47.803Z,35.9
2017-06-20T09:14:50.373Z,36.1
2017-06-20T09:15:52.897Z,37.3
2017-06-20T09:16:55.513Z,36.7
2017-06-20T09:17:58.083Z,36
2017-06-20T09:19:01.015Z,36.8
2017-06-20T09:20:03.668Z,37.2
2017-06-20T09:21:06.317Z,37.4
2017-06-20T09:22:08.932Z,38
2017-06-20T09:23:11.631Z,36
2017-06-20T09:24:14.221Z,37.9
2017-06-20T09:25:16.708Z,39.5
2017-06-20T09:26:19.306Z,39.1
2017-06-20T09:27:21.825Z,38.8
2017-06-20T09:28:24.344Z,38.3
2017-06-20T09:29:26.953Z,38.8
2017-06-20T09:30:30.533Z,36.5
2017-06-20T09:31:33.534Z,37.8
2017-06-20T09:32:36.087Z,38.1
2017-06-20T09:33:38.638Z,37.7
2017-06-20T09:34:41.361Z,38.3
2017-06-20T09:35:44.260Z,38.6
2017-06-20T09:36:46.816Z,38.8
2017-06-20T09:37:49.401Z,38.6
2017-06-20T09:38:53.120Z,37.8
2017-06-20T09:39:55.704Z,36.1
2017-06-20T09:40:58.297Z,33.1
2017-06-20T09:42:00.877Z,35.6
2017-06-20T09:43:03.555Z,36.2
2017-06-20T09:44:06.223Z,36.4
2017-06-20T09:45:08.792Z,36.7
2017-06-20T09:46:11.476Z,33.8
2017-06-20T09:47:14.148Z,33.5
2017-06-20T09:48:16.823Z,32.2
2017-06-20T09:49:19.394Z,32.7
2017-06-20T09:50:22.089Z,33.5
2017-06-20T09:51:24.974Z,34
2017-06-20T09:52:27.705Z,33.9
2017-06-20T09:53:30.778Z,34.1
2017-06-20T09:54:41.176Z,34.2
2017-06-20T09:55:44.000Z,34.2
2017-06-20T09:56:46.592Z,34.1
2017-06-20T09:57:49.257Z,31.9
2017-06-20T09:58:53.074Z,32
2017-06-20T09:59:55.722Z,31.2
2017-06-20T10:00:58.361Z,31.7
2017-06-20T10:02:01.150Z,33.2
2017-06-20T10:03:03.817Z,32.9
2017-06-20T10:04:06.634Z,32.1
2017-06-20T10:05:09.217Z,31.4
2017-06-20T10:06:12.532Z,31.7
2017-06-20T10:07:15.130Z,32.2
2017-06-20T10:08:18.555Z,32.8
2017-06-20T10:09:21.539Z,33
2017-06-20T10:10:24.201Z,32.7
2017-06-20T10:11:26.828Z,33.3
2017-06-20T10:12:29.379Z,34
2017-06-20T10:13:32.127Z,34.3
2017-06-20T10:14:34.766Z,34.2
2017-06-20T10:15:37.469Z,34.8
2017-06-20T10:16:40.737Z,33.4
2017-06-20T10:17:43.388Z,33.5
2017-06-20T10:18:46.204Z,33.4
2017-06-20T10:19:48.944Z,32.1
2017-06-20T10:20:51.996Z,32.1
2017-06-20T10:21:54.627Z,32.4
2017-06-20T10:23:04.850Z,31.6
2017-06-20T10:24:07.709Z,31.2
2017-06-20T10:25:11.125Z,32.3
2017-06-20T10:26:13.740Z,32.7
2017-06-20T10:27:16.389Z,32.8
2017-06-20T10:28:19.120Z,32.8
2017-06-20T10:29:21.824Z,31.7
2017-06-20T10:30:24.464Z,31.9
2017-06-20T10:31:27.036Z,32
2017-06-20T10:32:29.998Z,31.6
2017-06-20T10:33:32.674Z,32.4
2017-06-20T10:34:35.328Z,32.4
2017-06-20T10:35:37.951Z,32.1
2017-06-20T10:36:40.663Z,31.9
2017-06-20T10:37:43.411Z,31.2
2017-06-20T10:38:46.042Z,31.6
2017-06-20T10:39:48.783Z,32.1
2017-06-20T10:40:51.532Z,32.3
2017-06-20T10:41:54.171Z,32.6
2017-06-20T10:42:56.790Z,31.7
2017-06-20T10:43:59.424Z,32.5
2017-06-20T10:45:02.104Z,32.7
2017-06-20T10:46:04.850Z,32.2
2017-06-20T10:47:07.477Z,31.6
2017-06-20T10:48:10.263Z,32
2017-06-20T10:49:14.986Z,30.3
2017-06-20T10:50:17.626Z,30
2017-06-20T10:51:20.390Z,30.1
2017-06-20T10:52:23.078Z,31
2017-06-20T10:53:25.692Z,32
2017-06-20T10:54:28.325Z,31.4
2017-06-20T10:55:31.030Z,32.3
2017-06-20T10:56:33.669Z,32.6
2017-06-20T10:57:36.629Z,31.3
2017-06-20T10:58:40.833Z,30.8
2017-06-20T10:59:43.575Z,31.5
2017-06-20T11:00:46.226Z,31.8
2017-06-20T11:01:49.558Z,31.4
2017-06-20T11:02:52.406Z,32
2017-06-20T11:03:55.612Z,31.8
2017-06-20T11:04:59.159Z,32.5
2017-06-20T11:06:02.131Z,32.7
2017-06-20T11:07:04.921Z,33.1
2017-06-20T11:08:07.668Z,32.3
2017-06-20T11:09:10.574Z,32.2
2017-06-20T11:10:13.187Z,32.3
2017-06-20T11:11:15.932Z,32.7
2017-06-20T11:12:18.828Z,33.1
2017-06-20T11:13:21.809Z,32.2
2017-06-20T11:14:24.586Z,32.3
2017-06-20T11:15:27.908Z,31.4
2017-06-20T11:16:31.986Z,32
2017-06-20T11:17:36.762Z,32.1
2017-06-20T11:18:41.476Z,31.8
2017-06-20T11:19:44.630Z,31.9
2017-06-20T11:21:59.971Z,31.1
2017-06-20T11:23:02.598Z,31.4
2017-06-20T11:24:05.218Z,31.4
2017-06-20T11:25:07.882Z,31.2
2017-06-20T11:26:10.706Z,31.2
2017-06-20T11:27:13.358Z,31.4
2017-06-20T11:28:16.096Z,31.5
2017-06-20T11:29:18.800Z,31.7
2017-06-20T11:30:21.811Z,32.2
2017-06-20T11:31:24.414Z,32.6
2017-06-20T11:32:27.021Z,32.4
2017-06-20T11:33:29.709Z,32.4
2017-06-20T11:34:32.366Z,32.2
2017-06-20T11:35:34.952Z,32.7
2017-06-20T11:36:37.643Z,32.6
2017-06-20T11:37:40.433Z,33
2017-06-20T11:38:43.174Z,33.5
2017-06-20T11:39:45.881Z,33.6
2017-06-20T11:40:48.518Z,33.3
2017-06-20T11:41:51.179Z,32.4
2017-06-20T11:42:53.888Z,32.5
2017-06-20T11:43:56.525Z,32.9
2017-06-20T11:44:59.281Z,33.5
2017-06-20T11:46:02.153Z,33.5
2017-06-20T11:47:04.844Z,33.7
2017-06-20T11:48:07.413Z,33.8
2017-06-20T11:49:10.122Z,32.9
2017-06-20T11:50:12.706Z,33
2017-06-20T11:51:15.442Z,32.8
2017-06-20T11:52:18.111Z,33
2017-06-20T11:53:20.837Z,33.5
2017-06-20T11:54:23.425Z,32
2017-06-20T11:55:26.077Z,31.6
2017-06-20T11:56:29.476Z,32.9
2017-06-20T11:57:32.433Z,33.4
2017-06-20T11:58:35.094Z,33.5
2017-06-20T11:59:37.758Z,32.8
2017-06-20T12:00:40.428Z,32.5
2017-06-20T12:01:43.038Z,32.9
2017-06-20T12:02:45.619Z,32.7
2017-06-20T12:03:48.178Z,32.7
2017-06-20T12:04:51.778Z,31.4
2017-06-20T12:05:54.456Z,31
2017-06-20T12:06:57.095Z,30.5
2017-06-20T12:07:59.707Z,31.1
2017-06-20T12:09:02.321Z,31
2017-06-20T12:10:04.869Z,31.2
2017-06-20T12:11:07.447Z,31.2
2017-06-20T12:12:15.273Z,31.3
2017-06-20T12:13:17.845Z,31.5
2017-06-20T12:14:20.501Z,31.1
2017-06-20T12:15:23.306Z,31.2
2017-06-20T12:16:25.980Z,31.9
2017-06-20T12:17:28.530Z,30.8
2017-06-20T12:18:31.177Z,31.1
2017-06-20T12:19:34.439Z,30.5
2017-06-20T12:20:36.993Z,30.9
2017-06-20T12:21:39.551Z,30
2017-06-20T12:22:42.227Z,30.2
2017-06-20T12:23:44.852Z,30.3
2017-06-20T12:24:47.665Z,30
2017-06-20T12:25:50.493Z,29.8
2017-06-20T12:26:53.253Z,29.6
2017-06-20T12:27:55.811Z,29.5
2017-06-20T12:28:58.346Z,29.8
2017-06-20T12:30:00.949Z,30.1
2017-06-20T12:32:14.899Z,29.9
2017-06-20T12:33:17.441Z,30.5
2017-06-20T12:34:24.169Z,31
2017-06-20T12:35:26.753Z,31.7
2017-06-20T12:36:29.314Z,31.3
2017-06-20T12:37:32.000Z,31.4
2017-06-20T12:38:34.561Z,31.4
2017-06-20T12:39:37.165Z,31.8
2017-06-20T12:40:39.741Z,31.8
2017-06-20T12:41:42.310Z,30.7
2017-06-20T12:42:44.866Z,30.7
2017-06-20T12:43:48.082Z,30.9
2017-06-20T12:44:50.823Z,30.7
2017-06-20T12:45:53.432Z,31.1
2017-06-20T12:46:56.012Z,31.5
2017-06-20T12:47:58.583Z,32
2017-06-20T12:49:01.442Z,32.2
2017-06-20T12:50:04.145Z,32.5
2017-06-20T12:51:06.782Z,32.3
2017-06-20T12:52:09.397Z,32.1
2017-06-20T12:53:12.051Z,30.8
2017-06-20T12:54:14.731Z,30.8
2017-06-20T12:55:19.006Z,30.3
2017-06-20T12:56:21.720Z,30.3
2017-06-20T12:57:24.367Z,30.3
2017-06-20T12:58:35.822Z,30.1
2017-06-20T12:59:38.425Z,29.5
2017-06-20T13:00:41.058Z,29.5
2017-06-20T13:01:43.758Z,29.5
2017-06-20T13:02:46.299Z,29.9
2017-06-20T13:03:48.900Z,30.2
2017-06-20T13:04:52.682Z,30.9
2017-06-20T13:05:55.429Z,30.4
2017-06-20T13:06:58.130Z,31.2
2017-06-20T13:08:00.871Z,31
2017-06-20T13:09:03.471Z,30.3
2017-06-20T13:10:06.155Z,30.5
2017-06-20T13:11:08.779Z,30
2017-06-20T13:12:11.460Z,29.6
2017-06-20T13:13:14.087Z,29.3
2017-06-20T13:14:16.698Z,29.3
2017-06-20T13:15:19.346Z,29.2
2017-06-20T13:16:22.072Z,29.5
2017-06-20T13:17:24.708Z,28.8
2017-06-20T13:18:27.361Z,28.7
2017-06-20T13:19:30.022Z,28.8
2017-06-20T13:20:32.763Z,28.5
2017-06-20T13:21:35.505Z,28.6
2017-06-20T13:22:38.589Z,29
2017-06-20T13:23:41.966Z,29.1
2017-06-20T13:24:44.936Z,29.6
2017-06-20T13:25:47.951Z,29.3
2017-06-20T13:26:52.238Z,29.5
2017-06-20T13:27:56.274Z,29.3
2017-06-20T13:28:59.544Z,28.7
2017-06-20T13:30:02.908Z,29.3
2017-06-20T13:31:05.738Z,29.4
2017-06-20T13:32:08.850Z,29.1
2017-06-20T13:33:11.849Z,29.1
2017-06-20T13:34:14.567Z,29
2017-06-20T13:35:17.243Z,29.2
2017-06-20T13:36:19.941Z,28.4
2017-06-20T13:37:23.272Z,28.6
2017-06-20T13:38:25.952Z,28.8
2017-06-20T13:39:28.724Z,28.7
2017-06-20T13:40:31.389Z,28.6
2017-06-20T13:41:34.005Z,28.3
2017-06-20T13:42:36.875Z,28.5
2017-06-20T13:43:39.585Z,28.8
2017-06-20T13:44:42.276Z,28.4
2017-06-20T13:45:44.826Z,28.2
2017-06-20T13:46:47.385Z,28.3
2017-06-20T13:47:49.945Z,28.1
2017-06-20T13:48:52.704Z,28
2017-06-20T13:49:55.670Z,28.1
2017-06-20T13:50:58.310Z,28.3
2017-06-20T13:52:00.945Z,28.3
2017-06-20T13:53:03.544Z,28.5
2017-06-20T13:54:06.277Z,28
2017-06-20T13:55:08.955Z,28.2
2017-06-20T13:56:11.839Z,28.2
2017-06-20T13:57:14.437Z,28.1
2017-06-20T13:58:17.010Z,28.1
2017-06-20T13:59:19.632Z,28
2017-06-20T14:00:22.340Z,28.1
2017-06-20T14:01:25.090Z,27.9
2017-06-20T14:02:27.783Z,28.4
2017-06-20T14:03:30.499Z,28.3
2017-06-20T14:04:33.645Z,28.3
2017-06-20T14:05:36.600Z,28.1
2017-06-20T14:06:39.437Z,28.4
2017-06-20T14:07:42.271Z,28.3
2017-06-20T14:08:45.023Z,27.8
2017-06-20T14:09:47.837Z,28.3
2017-06-20T14:10:50.740Z,28
2017-06-20T14:11:53.480Z,28.4
2017-06-20T14:12:56.312Z,28.2
2017-06-20T14:13:59.162Z,28.4
2017-06-20T14:15:01.845Z,28.4
2017-06-20T14:16:04.490Z,28.6
2017-06-20T14:17:07.020Z,28.7
2017-06-20T14:18:12.001Z,28.5
2017-06-20T14:19:14.704Z,28.4
2017-06-20T14:20:17.428Z,28
2017-06-20T14:21:20.066Z,28.1
2017-06-20T14:22:22.795Z,28.3
2017-06-20T14:23:25.474Z,28.3
2017-06-20T14:24:28.222Z,28.5
2017-06-20T14:25:31.901Z,28.6
2017-06-20T14:26:34.632Z,28.9
2017-06-20T14:27:37.562Z,29.2
2017-06-20T14:28:41.006Z,29.4
2017-06-20T14:29:43.951Z,29.1
2017-06-20T14:30:46.796Z,29
2017-06-20T14:31:50.107Z,29.1
2017-06-20T14:32:53.095Z,28.7
2017-06-20T14:33:56.802Z,28.9
2017-06-20T14:36:20.805Z,28.5
2017-06-20T14:37:24.350Z,28.7
2017-06-20T14:38:27.217Z,29.3
2017-06-20T14:39:30.332Z,29.5
2017-06-20T14:40:32.985Z,29.3
2017-06-20T14:41:35.589Z,29.3
2017-06-20T14:42:38.215Z,29.5
2017-06-20T14:43:41.159Z,29.4
2017-06-20T14:44:44.383Z,29.7
2017-06-20T14:46:55.179Z,28.9
2017-06-20T14:47:58.204Z,29.3
2017-06-20T14:49:01.344Z,28.7
2017-06-20T14:50:04.439Z,28.9
2017-06-20T14:51:07.510Z,29.1
2017-06-20T14:52:10.512Z,29.4
2017-06-20T14:53:13.321Z,29.6
2017-06-20T14:54:21.040Z,29.5
2017-06-20T14:55:24.478Z,29.5
2017-06-20T14:56:28.104Z,29.1
2017-06-20T14:57:38.691Z,29.4
2017-06-20T14:58:43.907Z,29.1
2017-06-20T15:01:10.789Z,29.3
2017-06-20T15:02:13.798Z,29.5
2017-06-20T15:03:16.742Z,29.5
2017-06-20T15:04:19.417Z,29.4
2017-06-20T15:05:22.490Z,29.6
2017-06-20T15:07:39.223Z,29.1
2017-06-20T15:08:41.947Z,28.6
2017-06-20T15:09:48.977Z,28.9
2017-06-20T15:10:52.148Z,28.6
2017-06-20T15:11:55.152Z,28.6
2017-06-20T15:12:58.391Z,28.5
2017-06-20T15:14:01.262Z,28.5
2017-06-20T15:15:05.298Z,28.3
2017-06-20T15:16:08.201Z,28.7
2017-06-20T15:17:11.566Z,28.7
2017-06-20T15:18:15.160Z,28.7
2017-06-20T15:19:17.776Z,29.1
2017-06-20T15:20:20.432Z,29
2017-06-20T15:21:23.215Z,29
2017-06-20T15:22:25.820Z,28.8
2017-06-20T15:23:37.267Z,28.8
2017-06-20T15:24:39.859Z,28.7
2017-06-20T15:25:42.546Z,28.7
2017-06-20T15:26:45.242Z,28.6
2017-06-20T15:27:47.889Z,28.8
2017-06-20T15:28:50.623Z,28.9
2017-06-20T15:29:53.392Z,28.7
2017-06-20T15:30:59.342Z,28.7
2017-06-20T15:32:02.143Z,28.8
2017-06-20T15:33:04.769Z,28.7
2017-06-20T15:34:07.429Z,28.5
2017-06-20T15:35:10.674Z,28.5
2017-06-20T15:36:13.204Z,28.4
2017-06-20T15:37:15.766Z,28.5
2017-06-20T15:38:18.378Z,28.5
2017-06-20T15:39:21.036Z,28.5
2017-06-20T15:40:23.692Z,28.7
2017-06-20T15:41:29.254Z,28.8
2017-06-20T15:42:32.132Z,29
2017-06-20T15:43:35.022Z,28.8
2017-06-20T15:44:37.912Z,28.8
2017-06-20T15:45:41.631Z,28.4
2017-06-20T15:46:44.240Z,28.6
2017-06-20T15:47:46.947Z,28.5
2017-06-20T15:48:49.665Z,28.5
2017-06-20T15:49:53.356Z,28.3
2017-06-20T15:50:56.065Z,28.2
2017-06-20T15:51:58.870Z,28.3
2017-06-20T15:53:02.345Z,27.7
2017-06-20T15:54:05.485Z,28.2
2017-06-20T15:55:09.541Z,28
2017-06-20T15:56:13.324Z,28
2017-06-20T15:57:16.372Z,27.9
2017-06-20T15:58:20.217Z,28.2
2017-06-20T15:59:23.320Z,27.9
2017-06-20T16:00:27.218Z,28
2017-06-20T16:01:30.986Z,28
2017-06-20T16:02:34.882Z,28
2017-06-20T16:03:38.439Z,27.9
2017-06-20T16:04:41.452Z,28.2
2017-06-20T16:05:45.315Z,28.1
2017-06-20T16:06:50.046Z,27.8
2017-06-20T16:07:53.372Z,27.7
2017-06-20T16:08:56.344Z,27.7
2017-06-20T16:09:59.496Z,28
2017-06-20T16:11:02.985Z,28.4
2017-06-20T16:12:06.477Z,28.7
2017-06-20T16:13:09.476Z,28.6
2017-06-20T16:14:12.668Z,28.4
2017-06-20T16:15:15.741Z,28.5
2017-06-20T16:16:18.762Z,28.6
2017-06-20T16:17:22.206Z,28.4
2017-06-20T16:18:25.135Z,28.2
2017-06-20T16:19:28.163Z,28.6
2017-06-20T16:20:31.313Z,28.6
2017-06-20T16:21:35.932Z,28.6
2017-06-20T16:22:40.855Z,28.7
2017-06-20T16:23:44.116Z,28.2
2017-06-20T16:24:47.569Z,28.2
2017-06-20T16:25:50.813Z,27.7
2017-06-20T16:26:55.109Z,28
2017-06-20T16:27:58.506Z,27.5
2017-06-20T16:29:02.592Z,27.6
2017-06-20T16:30:07.014Z,27.8
2017-06-20T16:31:10.485Z,28
2017-06-20T16:32:13.622Z,27.9
2017-06-20T16:33:16.800Z,28.1
2017-06-20T16:34:20.130Z,27.6
2017-06-20T16:35:23.547Z,27.5
2017-06-20T16:36:26.821Z,27.7
2017-06-20T16:37:30.192Z,27.5
2017-06-20T16:38:33.484Z,27.8
2017-06-20T16:39:36.809Z,27.7
2017-06-20T16:40:39.901Z,27.9
2017-06-20T16:41:42.856Z,27.6
2017-06-20T16:42:45.454Z,27.7
2017-06-20T16:43:49.263Z,27.9
2017-06-20T16:44:52.104Z,27.7
2017-06-20T16:45:54.740Z,27.7
2017-06-20T16:46:57.405Z,27.7
2017-06-20T16:48:00.171Z,27.8
2017-06-20T16:49:03.052Z,27.8
2017-06-20T16:50:06.042Z,28
2017-06-20T16:51:08.980Z,27.8
2017-06-20T16:52:11.630Z,27.5
2017-06-20T16:53:14.364Z,27.5
2017-06-20T16:54:17.094Z,27.8
2017-06-20T16:55:19.993Z,27.5
2017-06-20T16:56:22.966Z,27.6
2017-06-20T16:57:25.693Z,28
2017-06-20T16:58:28.585Z,27.8
2017-06-20T16:59:31.514Z,27.8
2017-06-20T17:00:34.495Z,27.2
2017-06-20T17:01:37.186Z,27.5
2017-06-20T17:02:40.084Z,27.6
2017-06-20T17:03:42.780Z,28
2017-06-20T17:04:45.321Z,28
2017-06-20T17:05:47.848Z,27.9
2017-06-20T17:06:50.428Z,27.1
2017-06-20T17:07:53.039Z,27.2
2017-06-20T17:08:55.621Z,27.3
2017-06-20T17:09:58.952Z,27.1
2017-06-20T17:11:01.703Z,27.2
2017-06-20T17:12:04.323Z,26.7
2017-06-20T17:13:07.011Z,26.9
2017-06-20T17:14:09.677Z,26.9
2017-06-20T17:15:12.886Z,27
2017-06-20T17:16:15.483Z,26.9
2017-06-20T17:17:18.114Z,27.1
2017-06-20T17:18:20.665Z,27.4
2017-06-20T17:19:23.378Z,27.5
2017-06-20T17:20:26.027Z,27
2017-06-20T17:21:28.853Z,27.1
2017-06-20T17:22:31.512Z,27.2
2017-06-20T17:23:34.154Z,27
2017-06-20T17:24:36.808Z,26.7
2017-06-20T17:25:39.637Z,26.7
2017-06-20T17:26:42.511Z,26.8
2017-06-20T17:27:45.629Z,26.5
2017-06-20T17:28:48.181Z,26.6
2017-06-20T17:29:51.391Z,26.7
2017-06-20T17:30:53.968Z,26.7
2017-06-20T17:31:56.719Z,27
2017-06-20T17:32:59.407Z,27.1
2017-06-20T17:34:02.213Z,27.3
2017-06-20T17:35:04.928Z,27.1
2017-06-20T17:36:07.529Z,27.1
2017-06-20T17:37:10.130Z,26.9
2017-06-20T17:38:12.693Z,27
2017-06-20T17:39:15.217Z,26.8
2017-06-20T17:40:17.792Z,27
2017-06-20T17:41:20.671Z,27
2017-06-20T17:42:23.224Z,26.9
2017-06-20T17:43:25.950Z,26.5
2017-06-20T17:44:28.518Z,26.4
2017-06-20T17:45:31.318Z,26.3
2017-06-20T17:46:34.098Z,26.6
2017-06-20T17:47:36.720Z,26.4
2017-06-20T17:48:39.445Z,26.4
2017-06-20T17:49:42.481Z,26.3
2017-06-20T17:50:45.143Z,26.6
2017-06-20T17:51:47.863Z,26.4
2017-06-20T17:52:50.491Z,26.2
2017-06-20T17:53:53.482Z,26.4
2017-06-20T17:54:56.374Z,26.1
2017-06-20T17:55:58.951Z,26.2
2017-06-20T17:57:01.643Z,26.1
2017-06-20T17:58:04.156Z,26
2017-06-20T17:59:06.781Z,25.7
2017-06-20T18:00:09.452Z,26
2017-06-20T18:01:12.027Z,25.9
2017-06-20T18:02:14.578Z,26
2017-06-20T18:03:17.131Z,25.9
2017-06-20T18:04:19.682Z,26
2017-06-20T18:05:22.325Z,25.9
2017-06-20T18:06:24.856Z,25.8
2017-06-20T18:07:27.439Z,25.7
2017-06-20T18:08:30.158Z,25.8
2017-06-20T18:09:32.966Z,25.5
2017-06-20T18:10:35.964Z,25.8
2017-06-20T18:11:38.615Z,25.9
2017-06-20T18:12:41.260Z,25.8
2017-06-20T18:13:43.776Z,25.8
2017-06-20T18:14:46.296Z,25.7
2017-06-20T18:15:48.914Z,25.5
2017-06-20T18:16:51.516Z,25.9
2017-06-20T18:17:54.074Z,26
2017-06-20T18:18:56.568Z,26
2017-06-20T18:19:59.856Z,26
2017-06-20T18:21:02.462Z,25.9
2017-06-20T18:23:14.276Z,25.5
2017-06-20T18:24:16.776Z,25.8
2017-06-20T18:25:20.093Z,25.8
2017-06-20T18:26:22.651Z,25.6
2017-06-20T18:27:25.243Z,25.4
2017-06-20T18:28:27.758Z,25.5
2017-06-20T18:29:30.341Z,25.9
2017-06-20T18:30:32.966Z,25.8
2017-06-20T18:31:35.582Z,25.9
2017-06-20T18:32:38.272Z,26
2017-06-20T18:33:40.909Z,26.2
2017-06-20T18:34:47.045Z,26.1
2017-06-20T18:35:49.630Z,25.6
2017-06-20T18:36:52.197Z,25.7
2017-06-20T18:37:54.799Z,25.6
2017-06-20T18:38:57.366Z,25.6
2017-06-20T18:39:59.957Z,25.4
2017-06-20T18:41:02.654Z,25.5
2017-06-20T18:42:05.270Z,25.7
2017-06-20T18:43:08.844Z,25.3
2017-06-20T18:44:11.628Z,25.3
2017-06-20T18:46:23.674Z,25.2
2017-06-20T18:47:26.236Z,25.4
2017-06-20T18:48:28.908Z,25.3
2017-06-20T18:49:31.943Z,25.1
2017-06-20T18:50:34.519Z,25.3
2017-06-20T18:51:37.275Z,25.2
2017-06-20T18:52:40.157Z,25.1
2017-06-20T18:53:43.090Z,25.4
2017-06-20T18:54:45.672Z,25
2017-06-20T18:55:48.304Z,25
2017-06-20T18:56:50.878Z,25.3
2017-06-20T18:57:53.448Z,25.1
2017-06-20T18:58:56.078Z,25.1
2017-06-20T18:59:59.129Z,24.7
2017-06-20T19:01:02.344Z,24.7
2017-06-20T19:02:05.226Z,24.5
2017-06-20T19:03:08.429Z,24.5
2017-06-20T19:04:11.160Z,24.5
2017-06-20T19:05:13.924Z,24.4
2017-06-20T19:06:19.258Z,24.3
2017-06-20T19:07:22.071Z,24.4
2017-06-20T19:08:24.873Z,24.4
2017-06-20T19:09:27.392Z,24.5
2017-06-20T19:10:30.018Z,24.4
2017-06-20T19:12:44.086Z,24.5
2017-06-20T19:13:46.652Z,24.5
2017-06-20T19:14:49.292Z,24.3
2017-06-20T19:15:51.913Z,24.2
2017-06-20T19:16:54.474Z,24.3
2017-06-20T19:17:57.195Z,24.2
2017-06-20T19:18:59.835Z,24.1
2017-06-20T19:20:02.585Z,24.2
2017-06-20T19:21:05.340Z,24.4
2017-06-20T19:22:12.110Z,24.3
2017-06-20T19:23:14.710Z,24.1
2017-06-20T19:24:17.301Z,24.4
2017-06-20T19:25:20.091Z,24.1
2017-06-20T19:26:22.921Z,24.4
2017-06-20T19:27:25.585Z,24.2
2017-06-20T19:28:28.364Z,24.3
2017-06-20T19:29:31.087Z,24.1
2017-06-20T19:30:33.776Z,24.3
2017-06-20T19:31:36.422Z,24
2017-06-20T19:32:39.312Z,23.7
2017-06-20T19:33:41.971Z,23.9
2017-06-20T19:34:44.556Z,24.2
2017-06-20T19:35:47.161Z,23.7
2017-06-20T19:36:49.770Z,23.8
2017-06-20T19:37:52.392Z,23.6
2017-06-20T19:38:54.932Z,23.9
2017-06-20T19:39:57.598Z,23.9
2017-06-20T19:41:00.438Z,23.9
2017-06-20T19:42:03.287Z,23.6
2017-06-20T19:43:05.932Z,23.6
2017-06-20T19:44:08.542Z,23.5
2017-06-20T19:45:11.142Z,23.4
2017-06-20T19:46:13.793Z,23.4
2017-06-20T19:47:16.366Z,23.4
2017-06-20T19:48:27.840Z,23.5
2017-06-20T19:49:30.426Z,23.4
2017-06-20T19:50:33.119Z,23.2
2017-06-20T19:51:36.393Z,23.3
2017-06-20T19:52:39.014Z,23.7
2017-06-20T19:53:41.556Z,23.9
2017-06-20T19:54:44.246Z,23.5
2017-06-20T19:55:46.779Z,23.5
2017-06-20T19:56:49.293Z,23.3
2017-06-20T19:57:51.850Z,23.2
2017-06-20T19:58:54.514Z,23.3
2017-06-20T19:59:57.031Z,23
2017-06-20T20:00:59.647Z,23.1
2017-06-20T20:02:02.415Z,23.2
2017-06-20T20:03:05.366Z,23.2
2017-06-20T20:04:10.188Z,23.1
2017-06-20T20:05:12.803Z,23.1
2017-06-20T20:06:15.384Z,23.2
2017-06-20T20:07:17.949Z,23.1
2017-06-20T20:08:20.504Z,23
2017-06-20T20:09:23.390Z,23.1
2017-06-20T20:10:26.448Z,22.7
2017-06-20T20:11:28.992Z,22.9
2017-06-20T20:12:31.577Z,22.9
2017-06-20T20:13:34.240Z,22.9
2017-06-20T20:14:36.799Z,22.8
2017-06-20T20:15:39.354Z,22.7
2017-06-20T20:16:41.907Z,22.5
2017-06-20T20:17:44.488Z,22.5
2017-06-20T20:18:47.120Z,22.5
2017-06-20T20:19:49.623Z,22.5
2017-06-20T20:20:52.168Z,22.6
2017-06-20T20:21:54.663Z,22.5
2017-06-20T20:22:57.159Z,22.5
2017-06-20T20:23:59.748Z,22.7
2017-06-20T20:25:02.349Z,22.5
2017-06-20T20:26:05.028Z,22.7
2017-06-20T20:27:07.604Z,22.6
2017-06-20T20:28:10.160Z,22.6
2017-06-20T20:29:12.715Z,22.6
2017-06-20T20:30:15.286Z,22.5
2017-06-20T20:31:17.820Z,22.6
2017-06-20T20:32:20.400Z,22.6
2017-06-20T20:33:22.992Z,22.6
2017-06-20T20:34:25.685Z,22.6
2017-06-20T20:35:28.192Z,22.5
2017-06-20T20:36:30.754Z,22.4
2017-06-20T20:37:33.338Z,22.4
2017-06-20T20:38:36.056Z,22.4
2017-06-20T20:39:39.306Z,22.4
2017-06-20T20:40:41.903Z,22.3
2017-06-20T20:41:44.558Z,22.2
2017-06-20T20:42:47.154Z,22.3
2017-06-20T20:43:49.677Z,22.1
2017-06-20T20:44:52.208Z,22
2017-06-20T20:45:54.803Z,22.1
2017-06-20T20:46:57.386Z,22.2
2017-06-20T20:47:59.994Z,21.8
2017-06-20T20:49:02.573Z,22
2017-06-20T20:50:05.242Z,22.2
2017-06-20T20:51:07.810Z,22.3
2017-06-20T20:52:10.437Z,22.3
2017-06-20T20:53:12.970Z,22.2
2017-06-20T20:54:15.519Z,22
2017-06-20T20:55:18.052Z,22
2017-06-20T20:56:20.600Z,22.1
2017-06-20T20:57:23.174Z,22.1
2017-06-20T20:58:25.872Z,22.1
2017-06-20T20:59:28.456Z,21.9
2017-06-20T21:00:31.066Z,21.7
2017-06-20T21:01:33.651Z,21.9
2017-06-20T21:02:36.365Z,21.8
2017-06-20T21:03:38.900Z,21.6
2017-06-20T21:04:41.448Z,21.6
2017-06-20T21:05:43.994Z,21.7
2017-06-20T21:06:46.576Z,21.7
2017-06-20T21:07:49.132Z,21.7
2017-06-20T21:08:51.708Z,21.7
2017-06-20T21:09:54.300Z,21.5
2017-06-20T21:10:57.204Z,21.6
2017-06-20T21:11:59.693Z,22
2017-06-20T21:13:02.352Z,21.6
2017-06-20T21:14:05.008Z,21.6
2017-06-20T21:15:07.547Z,21.1
2017-06-20T21:16:10.098Z,21.5
2017-06-20T21:17:12.685Z,21.4
2017-06-20T21:18:15.217Z,21.4
2017-06-20T21:19:17.761Z,21.2
2017-06-20T21:20:20.248Z,21
2017-06-20T21:21:22.730Z,21.1
2017-06-20T21:22:25.436Z,21
2017-06-20T21:23:28.003Z,21.1
2017-06-20T21:24:30.505Z,21.3
2017-06-20T21:25:33.073Z,21.4
2017-06-20T21:26:35.683Z,21.3
2017-06-20T21:27:38.208Z,20.8
2017-06-20T21:28:40.745Z,20.9
2017-06-20T21:29:43.274Z,21
2017-06-20T21:30:45.876Z,21
2017-06-20T21:31:48.416Z,21.1
2017-06-20T21:32:50.938Z,21.2
2017-06-20T21:33:53.468Z,21.2
2017-06-20T21:34:56.078Z,21.1
2017-06-20T21:35:58.666Z,21
2017-06-20T21:37:01.234Z,20.8
2017-06-20T21:38:03.794Z,21
2017-06-20T21:39:06.367Z,20.6
2017-06-20T21:40:08.905Z,20.6
2017-06-20T21:41:11.424Z,20.6
2017-06-20T21:42:13.934Z,21
2017-06-20T21:43:16.480Z,21
2017-06-20T21:44:19.057Z,20.8
2017-06-20T21:45:21.604Z,20.8
2017-06-20T21:46:33.035Z,20.8
2017-06-20T21:47:35.750Z,21.1
2017-06-20T21:48:38.269Z,21.3
2017-06-20T21:49:40.824Z,21.2
2017-06-20T21:50:44.303Z,20.9
2017-06-20T21:51:48.038Z,20.6
2017-06-20T21:52:50.681Z,20.8
2017-06-20T21:53:53.196Z,20.9
2017-06-20T21:54:55.799Z,20.8
2017-06-20T21:55:58.386Z,20.7
2017-06-20T21:57:01.850Z,20.7
2017-06-20T21:58:06.019Z,20.6
2017-06-20T21:59:12.101Z,20.7
2017-06-20T22:00:15.418Z,20.6
2017-06-20T22:01:18.747Z,20.4
2017-06-20T22:02:22.852Z,20.5
2017-06-20T22:03:26.937Z,20.7
2017-06-20T22:04:30.912Z,20.9
2017-06-20T22:05:34.236Z,20.7
2017-06-20T22:06:36.861Z,20.5
2017-06-20T22:07:39.408Z,20.4
2017-06-20T22:08:42.023Z,20.5
2017-06-20T22:09:44.583Z,20.5
2017-06-20T22:10:47.068Z,20.4
2017-06-20T22:11:49.600Z,20.3
2017-06-20T22:12:52.242Z,20.4
2017-06-20T22:13:55.480Z,20.4
2017-06-20T22:14:58.041Z,20.1
2017-06-20T22:16:00.710Z,20.3
2017-06-20T22:17:03.201Z,20.2
2017-06-20T22:18:05.769Z,20.3
2017-06-20T22:19:08.267Z,20.5
2017-06-20T22:20:10.778Z,20.5
2017-06-20T22:21:13.242Z,20.5
2017-06-20T22:22:15.822Z,20.5
2017-06-20T22:23:18.455Z,20.4
2017-06-20T22:24:21.002Z,20.4
2017-06-20T22:25:23.506Z,20.3
2017-06-20T22:26:26.005Z,20.3
2017-06-20T22:27:28.461Z,20.4
2017-06-20T22:28:30.939Z,20.3
2017-06-20T22:29:33.415Z,20.3
2017-06-20T22:30:35.992Z,20.2
2017-06-20T22:31:38.530Z,20
2017-06-20T22:32:41.074Z,20.1
2017-06-20T22:33:43.517Z,20
2017-06-20T22:34:45.972Z,20.2
2017-06-20T22:35:48.449Z,20.1
2017-06-20T22:36:50.947Z,20
2017-06-20T22:37:53.399Z,19.9
2017-06-20T22:38:55.932Z,19.8
2017-06-20T22:39:58.386Z,19.9
2017-06-20T22:41:00.921Z,20
2017-06-20T22:42:03.424Z,19.9
2017-06-20T22:43:05.925Z,20
2017-06-20T22:44:08.398Z,20
2017-06-20T22:45:10.887Z,20
2017-06-20T22:46:13.351Z,19.8
2017-06-20T22:47:15.808Z,19.7
2017-06-20T22:48:18.454Z,19.7
2017-06-20T22:49:20.971Z,19.7
2017-06-20T22:50:23.448Z,19.6
2017-06-20T22:51:25.928Z,19.6
2017-06-20T22:52:28.440Z,19.7
2017-06-20T22:53:30.927Z,19.9
2017-06-20T22:54:33.461Z,19.9
2017-06-20T22:55:36.014Z,19.9
2017-06-20T22:56:38.531Z,19.6
2017-06-20T22:57:41.065Z,19.5
2017-06-20T22:58:43.545Z,19.5
2017-06-20T22:59:46.090Z,19.4
2017-06-20T23:00:48.767Z,19.4
2017-06-20T23:01:51.224Z,19.4
2017-06-20T23:02:53.664Z,19.5
2017-06-20T23:03:56.190Z,19.5
2017-06-20T23:04:58.855Z,19.4
2017-06-20T23:06:01.291Z,19.4
2017-06-20T23:07:03.791Z,19
2017-06-20T23:08:06.336Z,19.1
2017-06-20T23:09:08.897Z,18.9
2017-06-20T23:10:11.316Z,19.1
2017-06-20T23:11:13.865Z,19.2
2017-06-20T23:12:16.369Z,19.1
2017-06-20T23:13:18.851Z,19.1
2017-06-20T23:14:21.346Z,19.1
2017-06-20T23:15:23.826Z,19.1
2017-06-20T23:16:26.611Z,19.1
2017-06-20T23:17:29.061Z,19